Página principal
METAR-TAF:

METAR-TAF

Aeroportos :

Indianápolis, Indiana, Estados Unidos

latitude: 39-43-30N, longitude: 086-16-55W, altura: 243 m

Observação actual do tempo

O boletim foi feito há 20 minutos, às 09:54 UTC
Vento 6 kt de oeste
Temperatura 6°C
Humidade 87%
Pressão 1021 hPa
Visibilidade: 16.1 km
Céu limpo

METAR: KIND 230954Z 27006KT 10SM CLR 06/04 A3015 RMK AO2 SLP209 T00610039

Hora: 06:14 (10:14 UTC)

Previsão

O boletim foi feito há 2 horas e 1 minutos, às 08:13 UTC
Previsão válida de 23 às 08 UTC a 24 às 12 UTC
Vento 8 kt de oes-sudoeste
Visibilidade: 10 km
Poucas nuvensa uma altura de 25000 ft
A partir de 23 às 1400 UTC
Vento 10 kt de nor-noroeste
Visibilidade: 10 km
Poucas nuvensa uma altura de 25000 ft

TAF: KIND 230813Z 2308/2412 25008KT P6SM FEW250 FM231400 33010KT P6SM FEW250

Observações e previsões do tempo de mais de 4000 aeroportos (mensagens METAR e TAF).

As estações disponíveis são os pontos amarelos e vermelhos sobre o mapa.

Mova o rato sobre o mapa para ver o nome da estação.

Depois clique no ponto para visualizar as observações e previsões meteorológicas.

Para alterar o mapa : clique nos botões verdes com uma cruz preta para aumentar o zoom; no botão verde com uma pitada de zoom; ou nas setas verdes para mapas adjacentes.


METAR-TAF: